Time;durP1;ratioP1;P1;durP2;ratioP2;P2;SDS_P1;SDS_P2;PMS_P1;PMS_P2;Temp;Humidity;BMP_temperature;BMP_pressure;BME280_temperature;BME280_humidity;BME280_pressure;Samples;Min_cycle;Max_cycle;Signal;HPM_P1;HPM_P2
2021/08/03 00:00:10;;;;;;;0.00;0.00;;;14.10;93.30;;;17.18;80.91;101447.25;4421990;39;97788;-72
2021/08/03 00:03:28;;;;;;;0.00;0.00;;;14.10;93.30;;;17.09;81.83;101448.44;4423456;39;99818;-71
2021/08/03 00:06:36;;;;;;;3.88;1.00;;;14.10;93.30;;;17.05;81.05;101455.63;4423986;39;97584;-72
2021/08/03 00:09:44;;;;;;;0.20;0.10;;;14.10;93.30;;;16.97;80.83;101448.34;4420573;39;96885;-72
2021/08/03 00:12:52;;;;;;;0.20;0.20;;;14.00;93.10;;;16.63;81.65;101451.22;4412312;39;97675;-72
2021/08/03 00:16:03;;;;;;;0.17;0.17;;;13.90;93.00;;;16.51;81.44;101448.38;4412859;39;97201;-71
2021/08/03 00:19:16;;;;;;;0.65;0.65;;;13.80;93.00;;;16.42;81.69;101450.31;4412149;39;97086;-72
2021/08/03 00:22:22;;;;;;;0.63;0.63;;;13.70;93.00;;;16.44;81.91;101453.50;4415487;39;98758;-71
2021/08/03 00:25:27;;;;;;;0.05;0.05;;;13.70;93.10;;;16.32;80.89;101450.66;4416169;39;97530;-71
2021/08/03 00:28:33;;;;;;;0.15;0.15;;;13.60;93.00;;;16.27;81.06;101448.13;4413856;39;97538;-71
2021/08/03 00:31:38;;;;;;;0.45;0.43;;;13.50;92.90;;;16.13;80.85;101442.88;4404438;39;97547;-72
2021/08/03 00:34:44;;;;;;;0.05;0.05;;;13.50;92.90;;;16.28;81.02;101450.47;4416667;39;97551;-72
2021/08/03 00:37:48;;;;;;;0.30;0.30;;;13.40;93.10;;;16.32;80.74;101450.66;4405092;39;97997;-72
2021/08/03 00:41:03;;;;;;;0.05;0.05;;;13.40;93.20;;;16.28;80.71;101449.69;4413296;39;97593;-71
2021/08/03 00:44:07;;;;;;;0.17;0.17;;;13.40;93.20;;;16.30;80.89;101437.44;4412133;39;98060;-71
2021/08/03 00:47:14;;;;;;;2.55;1.20;;;13.40;93.20;;;16.28;80.54;101444.28;4414700;39;97620;-71
2021/08/03 00:50:22;;;;;;;0.10;0.10;;;13.40;93.30;;;16.16;80.99;101436.84;4413065;39;97745;-72
2021/08/03 00:53:26;;;;;;;0.20;0.20;;;13.30;93.30;;;16.18;82.28;101441.91;4412541;39;97180;-72
2021/08/03 00:56:34;;;;;;;0.47;0.20;;;13.40;93.60;;;16.27;81.28;101434.59;4409435;39;97034;-72
2021/08/03 00:59:39;;;;;;;0.10;0.10;;;13.40;93.40;;;16.31;81.12;101436.31;4413962;39;97538;-72
2021/08/03 01:02:45;;;;;;;3.40;0.95;;;13.40;93.30;;;16.29;80.70;101449.38;4411516;39;96816;-71
2021/08/03 01:06:06;;;;;;;0.00;0.00;;;13.40;93.30;;;16.25;80.99;101440.31;4407326;39;97959;-71
2021/08/03 01:09:24;;;;;;;0.10;0.10;;;13.30;93.30;;;16.28;81.18;101447.00;4411741;39;97755;-71
2021/08/03 01:12:47;;;;;;;0.40;0.40;;;13.30;93.30;;;16.21;80.58;101436.66;4413917;39;98558;-71
2021/08/03 01:15:58;;;;;;;0.10;0.10;;;13.30;93.20;;;16.15;80.55;101446.06;4415720;39;98576;-72
2021/08/03 01:19:21;;;;;;;0.22;0.22;;;13.30;93.20;;;16.18;80.24;101450.84;4415072;39;97741;-71
2021/08/03 01:23:34;;;;;;;0.00;0.00;;;13.20;93.20;;;16.20;80.61;101443.19;4414951;39;97656;-72
2021/08/03 01:27:18;;;;;;;0.30;0.30;;;13.20;93.20;;;16.06;80.02;101450.72;4413664;39;97585;-71
2021/08/03 01:30:25;;;;;;;0.57;0.57;;;13.10;93.00;;;15.89;81.04;101444.50;4413068;39;97756;-72
2021/08/03 01:33:35;;;;;;;0.43;0.30;;;13.00;93.00;;;15.85;80.59;101447.06;4406130;39;97596;-71
2021/08/03 01:36:55;;;;;;;0.10;0.10;;;13.00;93.10;;;15.88;81.02;101440.22;4407137;39;97452;-71
2021/08/03 01:40:06;;;;;;;0.22;0.22;;;13.00;93.20;;;15.86;80.21;101442.44;4410075;39;97755;-72
2021/08/03 01:43:11;;;;;;;0.10;0.10;;;12.90;93.50;;;15.78;81.46;101435.13;4412935;39;97556;-72
2021/08/03 01:46:20;;;;;;;0.25;0.17;;;12.90;93.20;;;15.80;80.84;101433.72;4403878;39;96675;-73
2021/08/03 01:49:25;;;;;;;0.95;0.63;;;12.90;93.30;;;15.69;80.55;101432.44;4411706;39;97494;-72
2021/08/03 01:52:35;;;;;;;0.17;0.15;;;12.90;93.20;;;15.73;80.48;101433.38;4409632;39;97752;-72
2021/08/03 01:55:45;;;;;;;52.03;1.90;;;12.90;93.30;;;15.74;80.80;101436.88;4405594;39;97322;-72
2021/08/03 01:58:56;;;;;;;0.25;0.25;;;12.80;93.30;;;15.73;80.52;101438.00;4414915;39;96692;-72
2021/08/03 02:02:07;;;;;;;0.20;0.20;;;12.80;93.30;;;15.67;81.09;101433.88;4411158;39;96761;-72
2021/08/03 02:05:15;;;;;;;0.00;0.00;;;12.80;93.30;;;15.68;80.64;101432.75;4405497;39;97602;-72
2021/08/03 02:08:31;;;;;;;0.28;0.28;;;12.70;93.30;;;15.68;81.23;101430.84;4406033;39;96586;-72
2021/08/03 02:11:51;;;;;;;0.10;0.10;;;12.70;93.30;;;15.64;80.99;101431.00;4411935;39;98377;-72
2021/08/03 02:14:55;;;;;;;0.30;0.30;;;12.70;93.20;;;15.61;80.16;101428.94;4406537;39;97336;-72
2021/08/03 02:18:06;;;;;;;0.30;0.28;;;12.70;93.20;;;15.59;80.85;101436.56;4411752;39;97801;-73
2021/08/03 02:21:16;;;;;;;0.00;0.00;;;12.70;93.20;;;15.59;80.10;101429.25;4413926;39;97800;-72
2021/08/03 02:24:20;;;;;;;1.38;1.27;;;12.60;93.20;;;15.50;80.23;101433.88;4416198;39;97854;-72
2021/08/03 02:27:25;;;;;;;0.15;0.15;;;12.60;93.20;;;15.45;80.62;101436.72;4396407;39;98094;-72
2021/08/03 02:30:30;;;;;;;0.28;0.28;;;12.50;93.20;;;15.36;80.92;101433.22;4420099;39;96624;-72
2021/08/03 02:33:46;;;;;;;0.00;0.00;;;12.50;93.10;;;15.37;80.92;101436.72;4415144;39;97352;-72
2021/08/03 02:36:54;;;;;;;0.10;0.10;;;12.40;93.20;;;15.38;80.43;101432.91;4395962;39;96915;-72
2021/08/03 02:40:04;;;;;;;0.10;0.10;;;12.40;93.30;;;15.40;80.68;101431.47;4412431;39;99953;-72
2021/08/03 02:43:26;;;;;;;0.25;0.25;;;12.40;93.30;;;15.33;80.42;101430.34;4414655;39;97728;-73
2021/08/03 02:46:33;;;;;;;0.10;0.10;;;12.40;93.60;;;15.24;80.90;101429.53;4413159;39;97213;-72
2021/08/03 02:49:47;;;;;;;0.10;0.10;;;12.30;93.30;;;15.18;81.07;101428.09;4415434;39;97700;-73
2021/08/03 02:52:56;;;;;;;0.15;0.15;;;12.30;93.30;;;15.22;80.17;101431.75;4414117;39;97725;-73
2021/08/03 02:56:07;;;;;;;0.10;0.10;;;12.30;93.30;;;15.20;80.79;101432.03;4411659;39;96565;-73
2021/08/03 02:59:17;;;;;;;0.43;0.43;;;12.30;93.30;;;15.19;80.96;101433.16;4412599;39;97313;-73
2021/08/03 03:02:24;;;;;;;0.22;0.22;;;12.30;93.40;;;15.17;80.71;101432.69;4411277;39;98332;-72
2021/08/03 03:05:41;;;;;;;0.00;0.00;;;12.20;93.30;;;15.16;80.90;101432.97;4403352;39;96847;-72
2021/08/03 03:08:47;;;;;;;0.10;0.10;;;12.20;93.30;;;15.09;81.00;101433.47;4413476;39;97749;-72
2021/08/03 03:11:54;;;;;;;0.10;0.10;;;12.20;93.30;;;15.10;81.14;101426.97;4405830;39;97707;-72
2021/08/03 03:15:04;;;;;;;0.05;0.05;;;12.20;93.30;;;15.10;80.98;101434.25;4402475;39;96987;-72
2021/08/03 03:18:10;;;;;;;0.10;0.10;;;12.10;93.30;;;15.17;81.00;101429.97;4415418;39;98548;-72
2021/08/03 03:21:20;;;;;;;0.13;0.13;;;12.20;93.40;;;15.18;80.68;101436.19;4404751;39;97306;-73
2021/08/03 03:24:26;;;;;;;0.20;0.20;;;12.20;93.50;;;15.23;81.52;101436.81;4404512;39;97621;-73
2021/08/03 03:27:31;;;;;;;0.47;0.15;;;12.10;93.60;;;15.34;81.02;101435.44;4410845;39;97738;-73
2021/08/03 03:30:36;;;;;;;0.40;0.40;;;12.20;93.70;;;15.40;81.21;101431.47;4410854;39;97784;-73
2021/08/03 03:33:43;;;;;;;0.10;0.10;;;12.20;93.70;;;15.42;80.83;101429.25;4411193;39;99229;-73
2021/08/03 03:36:52;;;;;;;0.85;0.50;;;12.30;93.70;;;15.40;80.90;101436.06;4410951;39;97194;-72
2021/08/03 03:39:58;;;;;;;0.10;0.10;;;12.30;93.70;;;15.38;80.94;101432.91;4413911;39;97422;-72
2021/08/03 03:43:06;;;;;;;0.08;0.08;;;12.30;93.70;;;15.38;80.99;101435.59;4405408;39;98305;-73
2021/08/03 03:46:17;;;;;;;0.10;0.10;;;12.30;93.60;;;15.39;80.81;101432.59;4413473;39;97843;-73
2021/08/03 03:49:31;;;;;;;0.45;0.45;;;12.40;93.70;;;15.43;81.45;101433.53;4415920;39;96906;-73
2021/08/03 03:52:47;;;;;;;0.40;0.40;;;12.40;93.60;;;15.50;80.74;101435.78;4413078;39;97163;-73
2021/08/03 03:55:55;;;;;;;0.00;0.00;;;12.40;93.60;;;15.54;80.79;101440.22;4407642;39;96657;-73
2021/08/03 03:59:03;;;;;;;0.70;0.55;;;12.50;93.70;;;15.61;80.96;101431.66;4413104;39;96802;-73
2021/08/03 04:02:10;;;;;;;0.10;0.10;;;12.50;93.70;;;15.77;81.29;101430.84;4416131;39;97723;-73
2021/08/03 04:05:17;;;;;;;0.10;0.10;;;12.60;93.70;;;15.87;81.22;101435.91;4413474;39;97556;-72
2021/08/03 04:08:22;;;;;;;0.17;0.17;;;12.60;93.70;;;15.88;80.38;101434.81;4412505;39;96841;-73
2021/08/03 04:11:27;;;;;;;0.00;0.00;;;12.70;93.70;;;15.93;80.98;101429.25;4411241;39;97590;-72
2021/08/03 04:14:35;;;;;;;0.40;0.40;;;12.70;93.60;;;16.05;80.75;101432.09;4409481;39;97766;-72
2021/08/03 04:17:44;;;;;;;0.38;0.38;;;12.80;93.60;;;16.11;79.95;101430.78;4411525;39;96976;-73
2021/08/03 04:20:49;;;;;;;0.05;0.05;;;12.80;93.50;;;16.22;79.86;101429.38;4414304;39;97508;-73
2021/08/03 04:23:55;;;;;;;0.20;0.20;;;12.90;93.50;;;16.29;79.81;101426.94;4413299;39;96789;-72
2021/08/03 04:26:58;;;;;;;0.32;0.28;;;12.90;93.40;;;16.32;79.36;101429.00;4406077;39;98528;-72
2021/08/03 04:30:05;;;;;;;;;;;13.00;93.30;;;16.40;79.44;101420.91;4421974;39;96826;-73
2021/08/03 04:33:09;;;;;;;0.10;0.10;;;13.10;93.30;;;16.44;79.91;101424.53;4414646;39;97666;-73
2021/08/03 04:36:13;;;;;;;0.30;0.30;;;13.20;93.20;;;16.61;79.68;101427.16;4413790;39;96643;-73
2021/08/03 04:39:20;;;;;;;0.10;0.10;;;13.30;93.20;;;16.81;79.93;101422.94;4413811;39;98575;-73
2021/08/03 04:42:26;;;;;;;0.15;0.15;;;13.40;93.20;;;16.80;79.43;101426.75;4413441;39;96774;-73
2021/08/03 04:45:30;;;;;;;0.43;0.30;;;13.50;93.10;;;16.69;79.58;101425.56;4413715;39;96660;-72
2021/08/03 04:48:34;;;;;;;0.43;0.43;;;13.50;93.00;;;16.55;79.42;101435.81;4399862;39;97745;-73
2021/08/03 04:51:38;;;;;;;1.83;0.90;;;13.40;93.00;;;16.50;80.09;101430.56;4407576;39;96873;-72
2021/08/03 04:54:44;;;;;;;0.10;0.10;;;13.40;93.10;;;16.51;79.37;101430.25;4398536;39;96981;-72
2021/08/03 04:57:47;;;;;;;0.10;0.10;;;13.30;93.20;;;16.48;79.99;101428.19;4415095;39;97711;-72
2021/08/03 05:00:52;;;;;;;1.23;0.88;;;13.30;93.20;;;16.56;79.77;101435.47;4396928;39;97571;-72
2021/08/03 05:03:56;;;;;;;0.10;0.10;;;13.40;93.30;;;16.67;79.45;101433.22;4414466;39;97216;-72
2021/08/03 05:07:03;;;;;;;2.08;0.40;;;13.40;93.30;;;16.80;79.66;101430.28;4412608;39;98711;-73
2021/08/03 05:10:13;;;;;;;0.50;0.47;;;13.50;93.30;;;16.89;79.44;101417.50;4415539;39;98194;-73
2021/08/03 05:13:17;;;;;;;0.57;0.57;;;13.60;93.20;;;17.08;78.20;101423.28;4413701;39;97067;-73
2021/08/03 05:16:21;;;;;;;0.47;0.47;;;13.70;93.20;;;17.27;78.13;101430.97;4414006;39;97795;-73
2021/08/03 05:19:27;;;;;;;;;;;13.80;93.10;;;17.42;77.72;101436.63;4415383;39;97738;-73
2021/08/03 05:22:31;;;;;;;0.40;0.40;;;13.90;92.90;;;17.61;77.46;101436.97;4413653;39;97829;-73
2021/08/03 05:25:37;;;;;;;0.88;0.52;;;14.10;92.80;;;18.00;77.67;101434.53;4396795;39;97522;-73
2021/08/03 05:28:41;;;;;;;0.77;0.77;;;14.30;92.70;;;18.29;76.39;101420.84;4412086;39;97878;-72
2021/08/03 05:31:45;;;;;;;;;;;14.50;92.40;;;18.61;75.76;101421.91;4413509;39;98505;-73
2021/08/03 05:34:49;;;;;;;1.30;0.85;;;14.70;92.10;;;18.97;75.17;101420.00;4413657;39;96709;-73
2021/08/03 05:37:54;;;;;;;11.50;1.00;;;15.00;92.00;;;19.42;74.18;101415.19;4413122;39;97681;-73
2021/08/03 05:40:58;;;;;;;0.25;0.25;;;15.40;91.80;;;23.35;64.17;101405.94;4413674;39;97715;-74
2021/08/03 05:44:06;;;;;;;0.30;0.30;;;17.50;90.50;;;26.96;56.40;101407.81;4413266;39;96876;-74
2021/08/03 05:47:10;;;;;;;0.13;0.13;;;20.10;84.30;;;28.81;53.16;101412.38;4415331;39;97357;-74
2021/08/03 05:50:14;;;;;;;0.22;0.22;;;22.00;79.70;;;29.18;53.62;101410.47;4412142;39;97735;-74
2021/08/03 05:53:17;;;;;;;16.67;0.45;;;23.10;77.00;;;26.85;61.09;101412.53;4413908;39;96858;-74
2021/08/03 05:56:23;;;;;;;;;;;22.60;77.90;;;25.07;65.94;101412.00;4414226;39;97606;-73
2021/08/03 05:59:26;;;;;;;0.20;0.20;;;21.90;80.30;;;25.45;66.03;101411.44;4413047;39;97482;-73
2021/08/03 06:02:31;;;;;;;0.00;0.00;;;21.70;82.10;;;24.33;68.37;101418.84;4405313;39;97164;-73
2021/08/03 06:05:37;;;;;;;0.68;0.68;;;21.20;83.20;;;23.89;69.72;101411.72;4412760;39;97004;-73
2021/08/03 06:08:44;;;;;;;0.20;0.20;;;20.80;84.50;;;24.02;69.70;101402.88;4413506;39;96660;-73
2021/08/03 06:11:52;;;;;;;1.08;0.52;;;20.70;85.90;;;28.97;57.69;101411.88;4413152;39;97112;-74
2021/08/03 06:14:57;;;;;;;0.52;0.40;;;22.50;83.20;;;27.54;61.92;101417.13;4415162;39;97085;-73
2021/08/03 06:18:09;;;;;;;0.10;0.08;;;22.80;82.50;;;26.48;65.36;101411.41;4413076;39;96801;-73
2021/08/03 06:21:14;;;;;;;0.32;0.32;;;22.50;82.40;;;28.35;61.15;101403.72;4412976;39;98010;-73
2021/08/03 06:24:20;;;;;;;1.33;0.75;;;23.20;82.50;;;28.97;60.10;101404.38;4411676;39;97686;-73
2021/08/03 06:27:25;;;;;;;3.83;0.80;;;23.90;81.00;;;30.83;56.18;101404.19;4407233;39;96607;-73
2021/08/03 06:30:30;;;;;;;0.10;0.10;;;25.20;78.60;;;34.21;49.56;101397.00;4413537;39;96636;-74
2021/08/03 06:33:34;;;;;;;0.10;0.10;;;27.00;76.00;;;36.70;45.81;101397.63;4414434;39;97168;-74
2021/08/03 06:36:38;;;;;;;0.28;0.28;;;29.10;71.90;;;37.87;44.45;101396.31;4411916;39;97176;-71
2021/08/03 06:39:43;;;;;;;0.10;0.10;;;30.50;69.20;;;38.71;43.90;101375.25;4413449;39;97582;-72
2021/08/03 06:42:59;;;;;;;0.30;0.10;;;31.70;67.80;;;40.17;41.83;101374.06;4421436;39;97676;-72
2021/08/03 06:46:10;;;;;;;0.00;0.00;;;32.80;65.80;;;41.14;41.07;101375.03;4412852;39;97898;-71
2021/08/03 06:49:16;;;;;;;1.35;0.40;;;33.70;65.40;;;41.45;42.10;101373.84;4412648;39;97701;-71
2021/08/03 06:52:22;;;;;;;0.00;0.00;;;34.20;65.50;;;41.22;43.50;101367.72;4411518;39;99770;-72
2021/08/03 06:55:32;;;;;;;0.20;0.13;;;34.40;65.80;;;40.90;43.89;101366.13;4411946;39;96805;-72
2021/08/03 06:58:54;;;;;;;0.52;0.13;;;34.40;65.30;;;41.84;42.47;101358.06;4411573;39;97579;-72
2021/08/03 07:02:07;;;;;;;0.20;0.20;;;34.60;65.80;;;44.01;39.55;101359.69;4412448;39;97632;-72
2021/08/03 07:05:17;;;;;;;0.00;0.00;;;35.80;66.10;;;45.68;37.91;101363.41;4414403;39;97588;-72
2021/08/03 07:08:21;;;;;;;0.10;0.10;;;37.00;64.90;;;46.79;36.90;101340.97;4413935;39;97675;-72
2021/08/03 07:11:30;;;;;;;0.03;0.03;;;38.20;63.50;;;47.13;36.37;101327.81;4411158;39;97024;-72
2021/08/03 07:14:37;;;;;;;0.20;0.20;;;38.70;62.90;;;46.26;38.64;101336.28;4402767;39;96865;-73
2021/08/03 07:17:43;;;;;;;0.00;0.00;;;38.70;62.60;;;46.12;39.02;101343.13;4411799;39;97818;-74
2021/08/03 07:20:51;;;;;;;4.97;1.20;;;38.50;64.00;;;44.06;43.62;101342.72;4409578;39;97079;-72
2021/08/03 07:23:57;;;;;;;0.08;0.08;;;37.80;66.10;;;43.17;45.30;101337.59;4405621;39;98194;-72
2021/08/03 07:27:05;;;;;;;0.28;0.22;;;37.10;67.30;;;41.93;47.47;101343.75;4416008;39;97653;-72
2021/08/03 07:30:12;;;;;;;0.00;0.00;;;36.40;68.70;;;40.08;50.70;101346.13;4414721;39;96735;-72
2021/08/03 07:33:18;;;;;;;0.57;0.28;;;35.50;69.90;;;38.30;53.42;101350.94;4412924;39;96832;-71
2021/08/03 07:36:22;;;;;;;0.43;0.17;;;34.50;71.00;;;37.05;55.51;101351.41;4414169;39;96741;-73
2021/08/03 07:39:29;;;;;;;0.10;0.10;;;33.40;72.10;;;35.83;57.01;101348.19;4411949;39;97516;-71
2021/08/03 07:42:33;;;;;;;0.30;0.30;;;32.30;72.60;;;36.11;55.85;101350.66;4414336;39;98597;-71
2021/08/03 07:45:39;;;;;;;0.38;0.17;;;31.50;74.30;;;37.56;51.77;101347.41;4413283;39;97432;-72
2021/08/03 07:48:49;;;;;;;0.30;0.20;;;31.40;75.30;;;39.14;47.37;101346.56;4413458;39;96583;-71
2021/08/03 07:51:53;;;;;;;0.30;0.20;;;31.70;73.40;;;40.07;45.28;101341.78;4410900;39;97431;-71
2021/08/03 07:54:57;;;;;;;0.10;0.10;;;32.00;72.50;;;41.01;43.27;101349.34;4412755;39;96759;-71
2021/08/03 07:58:01;;;;;;;2.00;0.17;;;32.40;71.50;;;41.78;41.84;101351.63;4413294;39;97563;-72
2021/08/03 08:01:09;;;;;;;0.68;0.30;;;32.80;71.20;;;42.58;40.93;101344.66;4413688;39;97644;-72
2021/08/03 08:04:13;;;;;;;0.05;0.05;;;33.30;70.30;;;43.38;39.65;101341.75;4413173;39;96977;-72
2021/08/03 08:07:17;;;;;;;0.77;0.52;;;33.70;70.30;;;42.90;41.40;101341.16;4410181;39;98501;-72
2021/08/03 08:10:23;;;;;;;0.03;0.03;;;34.00;70.10;;;42.21;41.72;101341.91;4403551;39;96653;-72
2021/08/03 08:13:27;;;;;;;0.00;0.00;;;33.80;69.80;;;43.05;40.67;101336.06;4411707;39;96787;-72
2021/08/03 08:16:32;;;;;;;0.10;0.10;;;33.80;70.40;;;44.25;38.44;101337.25;4410741;39;97760;-73
2021/08/03 08:19:36;;;;;;;0.15;0.15;;;34.20;70.50;;;43.01;41.01;101323.47;4401998;39;97630;-73
2021/08/03 08:22:41;;;;;;;0.00;0.00;;;34.30;69.90;;;42.34;42.39;101324.53;4411067;39;98528;-72
2021/08/03 08:25:46;;;;;;;0.98;0.20;;;34.00;70.50;;;42.56;42.10;101331.03;4404506;39;97987;-73
2021/08/03 08:28:50;;;;;;;0.10;0.08;;;33.80;71.20;;;42.54;41.97;101327.22;4411118;39;97601;-73
2021/08/03 08:31:55;;;;;;;0.50;0.20;;;33.80;71.30;;;41.78;43.51;101323.44;4411211;39;97600;-73
2021/08/03 08:34:59;;;;;;;3.03;0.28;;;33.70;71.10;;;41.10;44.57;101333.06;4412429;39;98486;-73
2021/08/03 08:38:07;;;;;;;0.15;0.15;;;33.40;71.50;;;40.76;45.28;101322.75;4410732;39;97652;-72
2021/08/03 08:41:15;;;;;;;14.05;0.40;;;33.10;71.90;;;40.45;45.72;101319.03;4409099;39;97883;-72
2021/08/03 08:44:21;;;;;;;0.00;0.00;;;32.80;72.50;;;40.88;45.08;101315.97;4409301;39;97303;-73
2021/08/03 08:47:28;;;;;;;0.20;0.17;;;32.70;72.80;;;41.23;43.63;101314.53;4410391;39;98689;-74
2021/08/03 08:50:32;;;;;;;0.00;0.00;;;32.70;72.40;;;42.04;41.43;101315.66;4400966;39;97666;-73
2021/08/03 08:53:36;;;;;;;0.13;0.13;;;32.60;71.90;;;42.31;41.31;101306.56;4411648;39;96960;-73
2021/08/03 08:56:41;;;;;;;0.17;0.10;;;32.70;72.10;;;42.33;41.33;101306.09;4412194;39;97133;-74
2021/08/03 08:59:45;;;;;;;0.10;0.10;;;32.80;72.20;;;42.45;41.90;101308.47;4414312;39;97988;-73
2021/08/03 09:02:54;;;;;;;0.00;0.00;;;32.90;72.50;;;42.35;42.33;101301.50;4412289;39;97946;-73
2021/08/03 09:06:05;;;;;;;0.00;0.00;;;33.00;72.70;;;41.59;43.66;101304.63;4411796;39;96762;-73
2021/08/03 09:09:19;;;;;;;0.00;0.00;;;32.90;72.70;;;40.81;45.14;101301.56;4410018;39;97991;-73
2021/08/03 09:12:35;;;;;;;0.20;0.13;;;32.70;72.60;;;40.76;45.67;101305.09;4411085;39;97206;-73
2021/08/03 09:15:42;;;;;;;0.20;0.20;;;32.60;73.30;;;39.55;49.08;101311.84;4409647;39;97567;-73
2021/08/03 09:18:49;;;;;;;0.20;0.20;;;32.60;74.50;;;38.06;52.27;101307.41;4413381;39;96844;-73
2021/08/03 09:22:16;;;;;;;0.43;0.43;;;32.20;74.50;;;40.41;46.68;101310.03;4412912;39;96901;-73
2021/08/03 09:25:20;;;;;;;0.08;0.08;;;32.10;75.50;;;41.39;44.91;101308.28;4409889;39;97165;-73
2021/08/03 09:28:26;;;;;;;0.20;0.20;;;32.30;75.30;;;41.99;43.58;101304.38;4410670;39;97621;-73
2021/08/03 09:31:32;;;;;;;3.88;0.52;;;32.60;75.00;;;42.55;42.72;101294.91;4408479;39;97255;-73
2021/08/03 09:34:37;;;;;;;14.00;0.30;;;32.80;74.90;;;43.55;41.43;101303.00;4411810;39;97374;-72
2021/08/03 09:37:44;;;;;;;0.00;0.00;;;33.20;74.80;;;42.66;44.16;101295.72;4410023;39;97456;-73
2021/08/03 09:40:52;;;;;;;0.05;0.05;;;33.50;74.80;;;39.44;51.22;101297.63;4410602;39;97703;-74
2021/08/03 09:43:56;;;;;;;2.40;0.28;;;33.50;74.40;;;36.93;56.08;101294.38;4409039;39;98721;-73
2021/08/03 09:47:00;;;;;;;0.00;0.00;;;32.80;73.80;;;35.48;58.61;101299.34;4402294;39;97706;-74
2021/08/03 09:50:11;;;;;;;0.10;0.10;;;31.90;74.50;;;35.04;58.87;101309.00;4414885;39;98586;-75
2021/08/03 09:53:46;;;;;;;0.08;0.03;;;31.10;76.00;;;34.37;60.30;101303.00;4406640;39;96592;-74
2021/08/03 09:56:49;;;;;;;0.50;0.20;;;30.50;76.30;;;34.15;59.73;101304.16;4410148;39;97569;-74
2021/08/03 09:59:55;;;;;;;0.05;0.00;;;30.00;77.10;;;33.80;59.92;101298.97;4393261;39;96914;-74
2021/08/03 10:03:00;;;;;;;0.10;0.10;;;29.70;77.30;;;33.47;60.65;101297.59;4411386;39;97815;-75
2021/08/03 10:06:10;;;;;;;1.00;0.32;;;29.40;77.90;;;33.35;60.48;101296.38;4404992;39;97681;-75
2021/08/03 10:09:14;;;;;;;0.10;0.10;;;29.20;77.90;;;32.98;61.20;101299.03;4408702;39;99135;-75
2021/08/03 10:12:20;;;;;;;0.10;0.10;;;28.90;78.10;;;32.61;61.44;101302.44;4401784;39;98862;-76
2021/08/03 10:15:24;;;;;;;0.00;0.00;;;28.60;77.70;;;32.37;61.75;101292.00;4408794;39;98648;-76
2021/08/03 10:18:30;;;;;;;0.47;0.35;;;28.30;78.30;;;32.64;60.75;101293.22;4408709;39;97536;-76
2021/08/03 10:21:40;;;;;;;0.63;0.40;;;28.20;79.00;;;32.80;60.68;101307.88;4411238;39;97039;-76
2021/08/03 10:24:56;;;;;;;0.17;0.17;;;28.20;79.20;;;32.75;60.42;101302.84;4398079;39;96956;-76
2021/08/03 10:28:22;;;;;;;0.00;0.00;;;28.20;78.60;;;32.99;60.25;101297.81;4410076;39;97764;-76
2021/08/03 10:31:41;;;;;;;0.00;0.00;;;28.20;78.80;;;32.81;59.98;101297.56;4410423;39;97152;-74
2021/08/03 10:35:04;;;;;;;0.00;0.00;;;28.30;77.90;;;32.46;60.85;101301.28;4410354;39;97196;-75
2021/08/03 10:38:16;;;;;;;0.30;0.17;;;28.30;77.90;;;32.03;61.97;101302.75;4401416;39;97256;-75
2021/08/03 10:41:20;;;;;;;0.00;0.00;;;28.10;78.30;;;31.58;62.52;101305.38;4409636;39;97652;-75
2021/08/03 10:44:46;;;;;;;2.70;0.38;;;27.90;78.60;;;31.40;62.60;101296.66;4409028;39;97130;-75
2021/08/03 10:47:49;;;;;;;0.10;0.10;;;27.60;78.50;;;31.37;62.70;101303.06;4395051;39;97821;-75
2021/08/03 10:50:54;;;;;;;0.55;0.13;;;27.50;79.40;;;31.45;62.45;101296.16;4400433;39;97338;-75
2021/08/03 10:54:08;;;;;;;0.00;0.00;;;27.30;79.50;;;31.37;62.45;101299.50;4394620;39;98305;-75
2021/08/03 10:57:12;;;;;;;3.10;0.77;;;27.20;79.20;;;31.44;62.21;101293.81;4411885;39;97165;-76
2021/08/03 11:00:16;;;;;;;10.50;0.63;;;27.20;79.70;;;31.39;62.35;101286.78;4411363;39;97552;-74
2021/08/03 11:03:45;;;;;;;0.10;0.10;;;27.10;79.70;;;31.19;63.04;101291.56;4413862;39;96732;-74
2021/08/03 11:06:54;;;;;;;6.30;0.15;;;27.10;79.60;;;30.97;63.42;101292.41;4409495;39;96854;-70
2021/08/03 11:10:06;;;;;;;0.20;0.10;;;26.90;79.80;;;30.34;64.49;101292.81;4409174;39;96691;-70
2021/08/03 11:13:46;;;;;;;0.20;0.20;;;26.70;80.00;;;29.89;65.38;101289.59;4404409;39;97694;-70
2021/08/03 11:16:50;;;;;;;0.05;0.05;;;26.40;80.10;;;29.54;65.99;101295.63;4409150;39;97057;-70
2021/08/03 11:19:54;;;;;;;0.30;0.22;;;26.00;80.90;;;29.30;65.80;101295.94;4410793;39;97584;-70
2021/08/03 11:22:58;;;;;;;3.95;0.65;;;25.80;81.20;;;29.20;66.10;101294.88;4410893;39;97219;-71
2021/08/03 11:26:05;;;;;;;;;;;25.60;81.70;;;29.46;65.69;101299.69;4409544;39;97058;-70
2021/08/03 11:29:17;;;;;;;0.00;0.00;;;25.50;81.60;;;29.57;65.22;101292.03;4411381;39;97463;-70
2021/08/03 11:32:22;;;;;;;0.00;0.00;;;25.50;81.70;;;29.79;64.68;101295.28;4408041;39;97260;-71
2021/08/03 11:35:27;;;;;;;0.00;0.00;;;25.60;82.00;;;29.88;64.51;101293.56;4408214;39;98568;-71
2021/08/03 11:38:32;;;;;;;0.00;0.00;;;25.60;81.50;;;30.05;63.88;101288.97;4409672;39;96889;-71
2021/08/03 11:41:47;;;;;;;0.00;0.00;;;25.70;81.50;;;30.49;63.43;101289.38;4408037;39;97542;-71
2021/08/03 11:45:14;;;;;;;0.00;0.00;;;25.90;81.30;;;30.85;62.87;101290.28;4408178;39;96783;-71
2021/08/03 11:48:23;;;;;;;0.40;0.40;;;26.10;81.20;;;31.11;62.38;101287.41;4411603;39;98004;-71
2021/08/03 11:51:34;;;;;;;0.10;0.08;;;26.30;81.20;;;31.17;63.11;101279.38;4412458;39;96651;-71
2021/08/03 11:54:39;;;;;;;0.10;0.10;;;26.60;81.50;;;31.04;63.39;101281.97;4415021;39;97697;-73
2021/08/03 11:57:44;;;;;;;0.52;0.43;;;26.60;81.00;;;30.87;63.60;101283.09;4408965;39;97567;-72
2021/08/03 12:00:53;;;;;;;0.00;0.00;;;26.60;81.10;;;31.04;63.52;101289.50;4410364;39;97416;-72
2021/08/03 12:03:57;;;;;;;12.13;0.22;;;26.60;81.50;;;31.43;63.01;101276.41;4410439;39;96913;-72
2021/08/03 12:07:01;;;;;;;0.13;0.13;;;26.70;81.40;;;31.52;63.21;101278.59;4408404;39;98605;-72
2021/08/03 12:10:13;;;;;;;0.10;0.10;;;26.90;81.60;;;31.46;63.28;101266.47;4409060;39;97629;-72
2021/08/03 12:13:31;;;;;;;0.10;0.10;;;27.00;81.30;;;31.57;63.00;101264.22;4409721;39;97585;-72
2021/08/03 12:16:35;;;;;;;0.00;0.00;;;27.10;81.00;;;31.66;63.11;101268.00;4410935;39;97237;-72
2021/08/03 12:19:40;;;;;;;0.63;0.63;;;27.20;81.30;;;31.84;62.89;101267.56;4409246;39;97744;-72
2021/08/03 12:22:45;;;;;;;0.25;0.05;;;27.30;81.20;;;31.73;63.00;101262.28;4409697;39;98205;-72
2021/08/03 12:26:06;;;;;;;0.10;0.10;;;27.30;80.90;;;31.61;63.27;101265.72;4401956;39;97703;-72
2021/08/03 12:29:11;;;;;;;2.35;1.02;;;27.30;80.70;;;31.48;63.78;101253.72;4410670;39;100521;-72
2021/08/03 12:32:40;;;;;;;0.00;0.00;;;27.30;81.10;;;31.35;64.19;101255.63;4410046;39;98512;-72
2021/08/03 12:36:03;;;;;;;0.00;0.00;;;27.20;80.70;;;31.13;64.59;101245.44;4411391;39;97358;-72
2021/08/03 12:39:23;;;;;;;0.28;0.20;;;27.10;81.50;;;31.04;64.92;101245.19;4412679;39;97420;-72
2021/08/03 12:42:34;;;;;;;1.17;0.15;;;27.00;81.30;;;30.78;65.04;101262.75;4411322;39;97877;-72
2021/08/03 12:45:42;;;;;;;0.20;0.17;;;26.90;81.30;;;30.51;65.46;101259.31;4410504;39;97640;-72
2021/08/03 12:48:51;;;;;;;0.00;0.00;;;26.70;81.30;;;30.55;65.88;101253.69;4409371;39;97474;-72
2021/08/03 12:52:09;;;;;;;0.10;0.10;;;26.60;81.90;;;30.60;65.56;101256.78;4409975;39;96683;-72
2021/08/03 12:55:14;;;;;;;0.00;0.00;;;26.60;81.60;;;30.49;65.65;101258.16;4410750;39;98121;-72
2021/08/03 12:58:35;;;;;;;0.85;0.50;;;26.50;81.90;;;30.30;66.26;101253.34;4405091;39;98010;-72
2021/08/03 13:01:40;;;;;;;2.17;0.32;;;26.50;81.90;;;29.89;66.98;101255.63;4410909;39;97222;-72
2021/08/03 13:04:47;;;;;;;0.10;0.10;;;26.30;81.80;;;29.45;67.81;101250.41;4412382;39;96710;-72